sensor_id;sensor_type;location;lat;lon;timestamp;P1;durP1;ratioP1;P2;durP2;ratioP2
57111;SDS011;42992;49.084;19.300;2023-07-29T00:01:49;10.88;;;5.05;;
57111;SDS011;42992;49.084;19.300;2023-07-29T00:04:14;11.18;;;4.95;;
57111;SDS011;42992;49.084;19.300;2023-07-29T00:06:40;8.27;;;5.90;;
57111;SDS011;42992;49.084;19.300;2023-07-29T00:09:05;10.18;;;5.82;;
57111;SDS011;42992;49.084;19.300;2023-07-29T00:11:31;10.13;;;5.20;;
57111;SDS011;42992;49.084;19.300;2023-07-29T00:13:59;8.25;;;4.40;;
57111;SDS011;42992;49.084;19.300;2023-07-29T00:16:24;8.75;;;3.97;;
57111;SDS011;42992;49.084;19.300;2023-07-29T00:18:49;8.00;;;3.90;;
57111;SDS011;42992;49.084;19.300;2023-07-29T00:21:14;15.65;;;4.32;;
57111;SDS011;42992;49.084;19.300;2023-07-29T00:23:40;13.07;;;4.15;;
57111;SDS011;42992;49.084;19.300;2023-07-29T00:26:05;9.48;;;4.57;;
57111;SDS011;42992;49.084;19.300;2023-07-29T00:28:30;9.30;;;3.90;;
57111;SDS011;42992;49.084;19.300;2023-07-29T00:30:56;8.45;;;4.57;;
57111;SDS011;42992;49.084;19.300;2023-07-29T00:33:21;11.20;;;4.00;;
57111;SDS011;42992;49.084;19.300;2023-07-29T00:35:46;8.82;;;3.78;;
57111;SDS011;42992;49.084;19.300;2023-07-29T00:38:12;6.57;;;3.53;;
57111;SDS011;42992;49.084;19.300;2023-07-29T00:40:37;7.43;;;3.65;;
57111;SDS011;42992;49.084;19.300;2023-07-29T00:43:02;6.90;;;3.42;;
57111;SDS011;42992;49.084;19.300;2023-07-29T00:45:29;6.85;;;3.95;;
57111;SDS011;42992;49.084;19.300;2023-07-29T00:47:54;7.40;;;4.22;;
57111;SDS011;42992;49.084;19.300;2023-07-29T00:50:19;8.02;;;4.10;;
57111;SDS011;42992;49.084;19.300;2023-07-29T00:52:45;8.45;;;4.45;;
57111;SDS011;42992;49.084;19.300;2023-07-29T00:55:10;9.85;;;4.03;;
57111;SDS011;42992;49.084;19.300;2023-07-29T00:57:36;9.43;;;4.10;;
57111;SDS011;42992;49.084;19.300;2023-07-29T01:00:01;7.78;;;3.92;;
57111;SDS011;42992;49.084;19.300;2023-07-29T01:02:27;12.10;;;3.95;;
57111;SDS011;42992;49.084;19.300;2023-07-29T01:04:54;10.30;;;3.75;;
57111;SDS011;42992;49.084;19.300;2023-07-29T01:07:27;10.38;;;4.38;;
57111;SDS011;42992;49.084;19.300;2023-07-29T01:09:55;13.30;;;4.15;;
57111;SDS011;42992;49.084;19.300;2023-07-29T01:12:33;8.90;;;3.78;;
57111;SDS011;42992;49.084;19.300;2023-07-29T01:15:04;6.05;;;3.78;;
57111;SDS011;42992;49.084;19.300;2023-07-29T01:17:36;10.90;;;4.18;;
57111;SDS011;42992;49.084;19.300;2023-07-29T01:20:24;8.55;;;4.03;;
57111;SDS011;42992;49.084;19.300;2023-07-29T01:22:48;7.47;;;3.28;;
57111;SDS011;42992;49.084;19.300;2023-07-29T01:25:14;5.43;;;3.60;;
57111;SDS011;42992;49.084;19.300;2023-07-29T01:27:40;7.72;;;3.35;;
57111;SDS011;42992;49.084;19.300;2023-07-29T01:30:05;8.73;;;4.05;;
57111;SDS011;42992;49.084;19.300;2023-07-29T01:37:34;7.23;;;3.50;;
57111;SDS011;42992;49.084;19.300;2023-07-29T01:40:00;8.68;;;4.07;;
57111;SDS011;42992;49.084;19.300;2023-07-29T01:42:25;7.90;;;3.83;;
57111;SDS011;42992;49.084;19.300;2023-07-29T01:44:51;13.07;;;4.10;;
57111;SDS011;42992;49.084;19.300;2023-07-29T01:47:16;11.55;;;3.92;;
57111;SDS011;42992;49.084;19.300;2023-07-29T01:49:42;12.25;;;3.75;;
57111;SDS011;42992;49.084;19.300;2023-07-29T01:52:07;7.60;;;3.78;;
57111;SDS011;42992;49.084;19.300;2023-07-29T01:54:32;8.07;;;3.38;;
57111;SDS011;42992;49.084;19.300;2023-07-29T01:56:57;7.93;;;4.05;;
57111;SDS011;42992;49.084;19.300;2023-07-29T01:59:23;8.38;;;3.97;;
57111;SDS011;42992;49.084;19.300;2023-07-29T02:01:48;12.85;;;4.07;;
57111;SDS011;42992;49.084;19.300;2023-07-29T02:04:14;8.85;;;4.20;;
57111;SDS011;42992;49.084;19.300;2023-07-29T02:06:39;11.23;;;3.53;;
57111;SDS011;42992;49.084;19.300;2023-07-29T02:09:04;10.88;;;3.53;;
57111;SDS011;42992;49.084;19.300;2023-07-29T02:11:29;11.13;;;3.72;;
57111;SDS011;42992;49.084;19.300;2023-07-29T02:13:55;12.98;;;4.20;;
57111;SDS011;42992;49.084;19.300;2023-07-29T02:16:20;7.03;;;3.83;;
57111;SDS011;42992;49.084;19.300;2023-07-29T02:18:46;13.68;;;3.80;;
57111;SDS011;42992;49.084;19.300;2023-07-29T02:21:11;10.30;;;4.03;;
57111;SDS011;42992;49.084;19.300;2023-07-29T02:23:36;11.20;;;3.75;;
57111;SDS011;42992;49.084;19.300;2023-07-29T02:26:01;7.82;;;3.20;;
57111;SDS011;42992;49.084;19.300;2023-07-29T02:28:27;9.82;;;4.05;;
57111;SDS011;42992;49.084;19.300;2023-07-29T02:31:13;9.23;;;3.97;;
57111;SDS011;42992;49.084;19.300;2023-07-29T02:33:39;6.78;;;3.92;;
57111;SDS011;42992;49.084;19.300;2023-07-29T02:36:04;9.40;;;4.00;;
57111;SDS011;42992;49.084;19.300;2023-07-29T02:38:30;13.93;;;4.60;;
57111;SDS011;42992;49.084;19.300;2023-07-29T02:40:55;6.10;;;3.83;;
57111;SDS011;42992;49.084;19.300;2023-07-29T02:43:22;7.18;;;4.30;;
57111;SDS011;42992;49.084;19.300;2023-07-29T02:45:48;7.10;;;3.42;;
57111;SDS011;42992;49.084;19.300;2023-07-29T02:48:13;5.28;;;3.00;;
57111;SDS011;42992;49.084;19.300;2023-07-29T02:50:38;6.97;;;3.35;;
57111;SDS011;42992;49.084;19.300;2023-07-29T02:53:03;6.15;;;3.67;;
57111;SDS011;42992;49.084;19.300;2023-07-29T02:55:29;5.30;;;3.60;;
57111;SDS011;42992;49.084;19.300;2023-07-29T02:57:54;5.20;;;3.45;;
57111;SDS011;42992;49.084;19.300;2023-07-29T03:00:19;5.75;;;3.60;;
57111;SDS011;42992;49.084;19.300;2023-07-29T03:02:44;7.22;;;3.67;;
57111;SDS011;42992;49.084;19.300;2023-07-29T03:05:10;9.30;;;3.97;;
57111;SDS011;42992;49.084;19.300;2023-07-29T03:07:35;9.23;;;4.13;;
57111;SDS011;42992;49.084;19.300;2023-07-29T03:10:00;7.28;;;4.07;;
57111;SDS011;42992;49.084;19.300;2023-07-29T03:12:25;7.57;;;3.78;;
57111;SDS011;42992;49.084;19.300;2023-07-29T03:14:51;12.50;;;4.00;;
57111;SDS011;42992;49.084;19.300;2023-07-29T03:17:17;9.57;;;3.90;;
57111;SDS011;42992;49.084;19.300;2023-07-29T03:19:42;10.50;;;4.85;;
57111;SDS011;42992;49.084;19.300;2023-07-29T03:22:07;10.13;;;4.10;;
57111;SDS011;42992;49.084;19.300;2023-07-29T03:24:32;15.60;;;3.92;;
57111;SDS011;42992;49.084;19.300;2023-07-29T03:26:58;7.65;;;3.65;;
57111;SDS011;42992;49.084;19.300;2023-07-29T03:29:23;10.52;;;4.13;;
57111;SDS011;42992;49.084;19.300;2023-07-29T03:31:48;6.45;;;3.47;;
57111;SDS011;42992;49.084;19.300;2023-07-29T03:34:13;7.90;;;3.90;;
57111;SDS011;42992;49.084;19.300;2023-07-29T03:36:38;8.52;;;3.65;;
57111;SDS011;42992;49.084;19.300;2023-07-29T03:39:04;5.82;;;3.75;;
57111;SDS011;42992;49.084;19.300;2023-07-29T03:41:29;7.13;;;3.88;;
57111;SDS011;42992;49.084;19.300;2023-07-29T03:43:54;8.95;;;3.72;;
57111;SDS011;42992;49.084;19.300;2023-07-29T03:46:19;6.75;;;3.67;;
57111;SDS011;42992;49.084;19.300;2023-07-29T03:48:46;10.18;;;4.60;;
57111;SDS011;42992;49.084;19.300;2023-07-29T03:51:12;8.27;;;4.10;;
57111;SDS011;42992;49.084;19.300;2023-07-29T03:53:37;8.10;;;3.83;;
57111;SDS011;42992;49.084;19.300;2023-07-29T03:56:02;6.70;;;3.60;;
57111;SDS011;42992;49.084;19.300;2023-07-29T03:58:27;7.13;;;3.72;;
57111;SDS011;42992;49.084;19.300;2023-07-29T04:00:53;7.10;;;3.53;;
57111;SDS011;42992;49.084;19.300;2023-07-29T04:03:18;9.13;;;4.30;;
57111;SDS011;42992;49.084;19.300;2023-07-29T04:05:43;7.13;;;3.88;;
57111;SDS011;42992;49.084;19.300;2023-07-29T04:08:09;9.00;;;3.95;;
57111;SDS011;42992;49.084;19.300;2023-07-29T04:10:34;5.65;;;3.45;;
57111;SDS011;42992;49.084;19.300;2023-07-29T04:13:00;7.25;;;3.30;;
57111;SDS011;42992;49.084;19.300;2023-07-29T04:15:25;5.13;;;3.33;;
57111;SDS011;42992;49.084;19.300;2023-07-29T04:17:50;7.60;;;4.45;;
57111;SDS011;42992;49.084;19.300;2023-07-29T04:20:16;5.60;;;3.83;;
57111;SDS011;42992;49.084;19.300;2023-07-29T04:22:41;5.43;;;3.70;;
57111;SDS011;42992;49.084;19.300;2023-07-29T04:25:06;5.40;;;3.38;;
57111;SDS011;42992;49.084;19.300;2023-07-29T04:27:32;8.43;;;3.85;;
57111;SDS011;42992;49.084;19.300;2023-07-29T04:29:57;6.05;;;3.75;;
57111;SDS011;42992;49.084;19.300;2023-07-29T04:32:22;7.25;;;3.40;;
57111;SDS011;42992;49.084;19.300;2023-07-29T04:34:47;5.05;;;3.63;;
57111;SDS011;42992;49.084;19.300;2023-07-29T04:37:12;7.40;;;3.60;;
57111;SDS011;42992;49.084;19.300;2023-07-29T04:39:38;5.30;;;3.78;;
57111;SDS011;42992;49.084;19.300;2023-07-29T04:42:03;7.75;;;3.80;;
57111;SDS011;42992;49.084;19.300;2023-07-29T04:44:28;6.35;;;3.35;;
57111;SDS011;42992;49.084;19.300;2023-07-29T04:46:53;5.78;;;3.92;;
57111;SDS011;42992;49.084;19.300;2023-07-29T04:49:19;7.53;;;4.00;;
57111;SDS011;42992;49.084;19.300;2023-07-29T04:51:44;9.70;;;4.40;;
57111;SDS011;42992;49.084;19.300;2023-07-29T04:54:09;12.50;;;5.25;;
57111;SDS011;42992;49.084;19.300;2023-07-29T04:56:34;8.95;;;5.30;;
57111;SDS011;42992;49.084;19.300;2023-07-29T04:59:00;18.17;;;9.10;;
57111;SDS011;42992;49.084;19.300;2023-07-29T05:01:25;20.02;;;11.27;;
57111;SDS011;42992;49.084;19.300;2023-07-29T05:03:50;16.35;;;10.07;;
57111;SDS011;42992;49.084;19.300;2023-07-29T05:06:15;12.63;;;6.82;;
57111;SDS011;42992;49.084;19.300;2023-07-29T05:08:40;11.68;;;6.60;;
57111;SDS011;42992;49.084;19.300;2023-07-29T05:11:06;13.77;;;7.00;;
57111;SDS011;42992;49.084;19.300;2023-07-29T05:13:31;13.70;;;7.00;;
57111;SDS011;42992;49.084;19.300;2023-07-29T05:15:56;13.45;;;6.78;;
57111;SDS011;42992;49.084;19.300;2023-07-29T05:18:22;15.02;;;7.22;;
57111;SDS011;42992;49.084;19.300;2023-07-29T05:20:47;11.27;;;7.00;;
57111;SDS011;42992;49.084;19.300;2023-07-29T05:23:12;11.63;;;6.55;;
57111;SDS011;42992;49.084;19.300;2023-07-29T05:25:37;15.10;;;6.97;;
57111;SDS011;42992;49.084;19.300;2023-07-29T05:28:03;13.23;;;7.60;;
57111;SDS011;42992;49.084;19.300;2023-07-29T05:30:29;17.92;;;7.38;;
57111;SDS011;42992;49.084;19.300;2023-07-29T05:32:56;13.05;;;7.43;;
57111;SDS011;42992;49.084;19.300;2023-07-29T05:35:21;15.50;;;7.57;;
57111;SDS011;42992;49.084;19.300;2023-07-29T05:37:46;15.55;;;8.25;;
57111;SDS011;42992;49.084;19.300;2023-07-29T05:40:12;17.88;;;8.70;;
57111;SDS011;42992;49.084;19.300;2023-07-29T05:42:37;21.83;;;8.50;;
57111;SDS011;42992;49.084;19.300;2023-07-29T05:45:02;16.67;;;8.93;;
57111;SDS011;42992;49.084;19.300;2023-07-29T05:47:27;19.20;;;8.98;;
57111;SDS011;42992;49.084;19.300;2023-07-29T05:49:53;16.23;;;9.23;;
57111;SDS011;42992;49.084;19.300;2023-07-29T05:52:18;15.63;;;9.52;;
57111;SDS011;42992;49.084;19.300;2023-07-29T05:54:43;16.92;;;9.38;;
57111;SDS011;42992;49.084;19.300;2023-07-29T05:57:09;19.05;;;9.38;;
57111;SDS011;42992;49.084;19.300;2023-07-29T05:59:34;14.95;;;7.90;;
57111;SDS011;42992;49.084;19.300;2023-07-29T06:02:00;13.77;;;8.20;;
57111;SDS011;42992;49.084;19.300;2023-07-29T06:04:25;15.15;;;8.73;;
57111;SDS011;42992;49.084;19.300;2023-07-29T06:06:50;14.45;;;8.43;;
57111;SDS011;42992;49.084;19.300;2023-07-29T06:09:15;14.50;;;8.40;;
57111;SDS011;42992;49.084;19.300;2023-07-29T06:11:40;13.82;;;8.13;;
57111;SDS011;42992;49.084;19.300;2023-07-29T06:14:06;11.90;;;8.10;;
57111;SDS011;42992;49.084;19.300;2023-07-29T06:16:31;14.20;;;8.13;;
57111;SDS011;42992;49.084;19.300;2023-07-29T06:18:56;14.20;;;8.43;;
57111;SDS011;42992;49.084;19.300;2023-07-29T06:21:21;15.35;;;8.10;;
57111;SDS011;42992;49.084;19.300;2023-07-29T06:23:47;14.35;;;8.52;;
57111;SDS011;42992;49.084;19.300;2023-07-29T06:26:12;20.05;;;8.68;;
57111;SDS011;42992;49.084;19.300;2023-07-29T06:28:38;15.75;;;8.25;;
57111;SDS011;42992;49.084;19.300;2023-07-29T06:31:03;10.82;;;8.75;;
57111;SDS011;42992;49.084;19.300;2023-07-29T06:33:28;16.35;;;8.88;;
57111;SDS011;42992;49.084;19.300;2023-07-29T06:35:54;12.45;;;8.73;;
57111;SDS011;42992;49.084;19.300;2023-07-29T06:38:19;11.97;;;8.30;;
57111;SDS011;42992;49.084;19.300;2023-07-29T06:40:47;14.73;;;8.95;;
57111;SDS011;42992;49.084;19.300;2023-07-29T06:43:12;13.45;;;8.95;;
57111;SDS011;42992;49.084;19.300;2023-07-29T06:45:37;14.30;;;9.55;;
57111;SDS011;42992;49.084;19.300;2023-07-29T06:48:03;13.32;;;9.27;;
57111;SDS011;42992;49.084;19.300;2023-07-29T06:50:28;15.38;;;10.25;;
57111;SDS011;42992;49.084;19.300;2023-07-29T06:52:53;13.05;;;9.20;;
57111;SDS011;42992;49.084;19.300;2023-07-29T06:55:18;15.73;;;9.50;;
57111;SDS011;42992;49.084;19.300;2023-07-29T06:57:44;11.05;;;8.82;;
57111;SDS011;42992;49.084;19.300;2023-07-29T07:00:09;15.32;;;9.43;;
57111;SDS011;42992;49.084;19.300;2023-07-29T07:02:34;13.65;;;10.35;;
57111;SDS011;42992;49.084;19.300;2023-07-29T07:05:00;17.00;;;10.77;;
57111;SDS011;42992;49.084;19.300;2023-07-29T07:07:25;13.63;;;10.87;;
57111;SDS011;42992;49.084;19.300;2023-07-29T07:09:50;13.77;;;9.57;;
57111;SDS011;42992;49.084;19.300;2023-07-29T07:12:15;16.87;;;9.87;;
57111;SDS011;42992;49.084;19.300;2023-07-29T07:14:40;15.27;;;10.05;;
57111;SDS011;42992;49.084;19.300;2023-07-29T07:17:06;14.32;;;10.07;;
57111;SDS011;42992;49.084;19.300;2023-07-29T07:19:31;12.73;;;10.17;;
57111;SDS011;42992;49.084;19.300;2023-07-29T07:21:56;14.48;;;10.07;;
57111;SDS011;42992;49.084;19.300;2023-07-29T07:24:21;14.70;;;10.40;;
57111;SDS011;42992;49.084;19.300;2023-07-29T07:26:47;15.68;;;10.93;;
57111;SDS011;42992;49.084;19.300;2023-07-29T07:29:15;15.10;;;10.07;;
57111;SDS011;42992;49.084;19.300;2023-07-29T07:31:41;17.05;;;10.55;;
57111;SDS011;42992;49.084;19.300;2023-07-29T07:34:14;12.25;;;10.15;;
57111;SDS011;42992;49.084;19.300;2023-07-29T07:36:39;13.73;;;10.43;;
57111;SDS011;42992;49.084;19.300;2023-07-29T07:39:04;14.70;;;10.27;;
57111;SDS011;42992;49.084;19.300;2023-07-29T07:41:29;12.17;;;10.13;;
57111;SDS011;42992;49.084;19.300;2023-07-29T07:43:55;12.32;;;9.30;;
57111;SDS011;42992;49.084;19.300;2023-07-29T07:46:20;10.85;;;8.27;;
57111;SDS011;42992;49.084;19.300;2023-07-29T07:48:45;13.68;;;8.88;;
57111;SDS011;42992;49.084;19.300;2023-07-29T07:51:11;11.43;;;9.13;;
57111;SDS011;42992;49.084;19.300;2023-07-29T07:53:37;11.93;;;8.55;;
57111;SDS011;42992;49.084;19.300;2023-07-29T07:56:02;12.63;;;9.25;;
57111;SDS011;42992;49.084;19.300;2023-07-29T07:58:27;13.00;;;7.82;;
57111;SDS011;42992;49.084;19.300;2023-07-29T08:01:00;12.32;;;8.52;;
57111;SDS011;42992;49.084;19.300;2023-07-29T08:03:25;10.88;;;7.85;;
57111;SDS011;42992;49.084;19.300;2023-07-29T08:05:50;12.90;;;8.33;;
57111;SDS011;42992;49.084;19.300;2023-07-29T08:08:15;11.93;;;8.73;;
57111;SDS011;42992;49.084;19.300;2023-07-29T08:10:41;13.00;;;8.10;;
57111;SDS011;42992;49.084;19.300;2023-07-29T08:13:06;10.20;;;6.93;;
57111;SDS011;42992;49.084;19.300;2023-07-29T08:15:31;11.15;;;6.47;;
57111;SDS011;42992;49.084;19.300;2023-07-29T08:17:57;12.10;;;6.50;;
57111;SDS011;42992;49.084;19.300;2023-07-29T08:20:22;9.48;;;5.65;;
57111;SDS011;42992;49.084;19.300;2023-07-29T08:22:47;7.77;;;5.50;;
57111;SDS011;42992;49.084;19.300;2023-07-29T08:25:12;8.33;;;5.43;;
57111;SDS011;42992;49.084;19.300;2023-07-29T08:27:38;8.27;;;6.05;;
57111;SDS011;42992;49.084;19.300;2023-07-29T08:30:03;9.98;;;5.90;;
57111;SDS011;42992;49.084;19.300;2023-07-29T08:32:28;10.40;;;5.72;;
57111;SDS011;42992;49.084;19.300;2023-07-29T08:34:53;8.30;;;5.60;;
57111;SDS011;42992;49.084;19.300;2023-07-29T08:37:19;7.70;;;5.07;;
57111;SDS011;42992;49.084;19.300;2023-07-29T08:39:44;10.43;;;5.10;;
57111;SDS011;42992;49.084;19.300;2023-07-29T08:42:11;7.32;;;4.75;;
57111;SDS011;42992;49.084;19.300;2023-07-29T08:44:43;9.98;;;4.93;;
57111;SDS011;42992;49.084;19.300;2023-07-29T08:47:08;8.35;;;4.30;;
57111;SDS011;42992;49.084;19.300;2023-07-29T08:49:34;5.85;;;4.20;;
57111;SDS011;42992;49.084;19.300;2023-07-29T08:51:59;4.72;;;3.38;;
57111;SDS011;42992;49.084;19.300;2023-07-29T08:54:24;6.10;;;3.83;;
57111;SDS011;42992;49.084;19.300;2023-07-29T08:56:50;5.20;;;3.75;;
57111;SDS011;42992;49.084;19.300;2023-07-29T08:59:15;7.97;;;3.58;;
57111;SDS011;42992;49.084;19.300;2023-07-29T09:01:42;5.85;;;3.28;;
57111;SDS011;42992;49.084;19.300;2023-07-29T09:04:07;6.97;;;3.67;;
57111;SDS011;42992;49.084;19.300;2023-07-29T09:06:32;10.05;;;3.67;;
57111;SDS011;42992;49.084;19.300;2023-07-29T09:08:58;5.47;;;3.67;;
57111;SDS011;42992;49.084;19.300;2023-07-29T09:11:23;6.85;;;3.70;;
57111;SDS011;42992;49.084;19.300;2023-07-29T09:13:49;4.82;;;3.33;;
57111;SDS011;42992;49.084;19.300;2023-07-29T09:16:14;5.67;;;3.40;;
57111;SDS011;42992;49.084;19.300;2023-07-29T09:18:41;4.78;;;2.97;;
57111;SDS011;42992;49.084;19.300;2023-07-29T09:21:06;5.43;;;3.65;;
57111;SDS011;42992;49.084;19.300;2023-07-29T09:23:41;6.68;;;3.08;;
57111;SDS011;42992;49.084;19.300;2023-07-29T09:26:06;5.45;;;3.42;;
57111;SDS011;42992;49.084;19.300;2023-07-29T09:28:35;6.43;;;3.28;;
57111;SDS011;42992;49.084;19.300;2023-07-29T09:31:00;6.97;;;3.17;;
57111;SDS011;42992;49.084;19.300;2023-07-29T09:33:26;6.05;;;3.13;;
57111;SDS011;42992;49.084;19.300;2023-07-29T09:35:51;5.47;;;3.10;;
57111;SDS011;42992;49.084;19.300;2023-07-29T09:38:16;5.32;;;3.00;;
57111;SDS011;42992;49.084;19.300;2023-07-29T09:40:42;4.30;;;3.13;;
57111;SDS011;42992;49.084;19.300;2023-07-29T09:43:09;4.65;;;3.17;;
57111;SDS011;42992;49.084;19.300;2023-07-29T09:45:35;4.90;;;3.20;;
57111;SDS011;42992;49.084;19.300;2023-07-29T09:48:00;4.60;;;3.08;;
57111;SDS011;42992;49.084;19.300;2023-07-29T09:50:27;4.40;;;2.92;;
57111;SDS011;42992;49.084;19.300;2023-07-29T09:52:53;4.43;;;2.97;;
57111;SDS011;42992;49.084;19.300;2023-07-29T09:55:18;4.25;;;2.90;;
57111;SDS011;42992;49.084;19.300;2023-07-29T09:57:44;5.35;;;2.70;;
57111;SDS011;42992;49.084;19.300;2023-07-29T10:00:10;4.75;;;2.85;;
57111;SDS011;42992;49.084;19.300;2023-07-29T10:02:42;4.25;;;2.78;;
57111;SDS011;42992;49.084;19.300;2023-07-29T10:05:08;4.63;;;2.50;;
57111;SDS011;42992;49.084;19.300;2023-07-29T10:07:37;5.25;;;2.72;;
57111;SDS011;42992;49.084;19.300;2023-07-29T10:10:03;4.15;;;2.72;;
57111;SDS011;42992;49.084;19.300;2023-07-29T10:12:30;5.22;;;2.90;;
57111;SDS011;42992;49.084;19.300;2023-07-29T10:14:55;4.85;;;2.75;;
57111;SDS011;42992;49.084;19.300;2023-07-29T10:17:23;4.07;;;2.63;;
57111;SDS011;42992;49.084;19.300;2023-07-29T10:19:49;4.00;;;2.60;;
57111;SDS011;42992;49.084;19.300;2023-07-29T10:22:15;5.30;;;2.50;;
57111;SDS011;42992;49.084;19.300;2023-07-29T10:24:41;3.85;;;2.42;;
57111;SDS011;42992;49.084;19.300;2023-07-29T10:27:08;4.03;;;2.58;;
57111;SDS011;42992;49.084;19.300;2023-07-29T10:29:38;6.38;;;2.60;;
57111;SDS011;42992;49.084;19.300;2023-07-29T10:32:04;4.25;;;2.78;;
57111;SDS011;42992;49.084;19.300;2023-07-29T10:34:30;5.65;;;2.30;;
57111;SDS011;42992;49.084;19.300;2023-07-29T10:36:55;7.03;;;3.63;;
57111;SDS011;42992;49.084;19.300;2023-07-29T10:39:21;6.88;;;2.72;;
57111;SDS011;42992;49.084;19.300;2023-07-29T10:41:59;5.20;;;2.65;;
57111;SDS011;42992;49.084;19.300;2023-07-29T10:49:41;5.80;;;3.20;;
57111;SDS011;42992;49.084;19.300;2023-07-29T10:52:06;6.97;;;3.28;;
57111;SDS011;42992;49.084;19.300;2023-07-29T10:54:41;4.97;;;3.30;;
57111;SDS011;42992;49.084;19.300;2023-07-29T10:57:06;5.35;;;3.38;;
57111;SDS011;42992;49.084;19.300;2023-07-29T10:59:32;5.97;;;3.15;;
57111;SDS011;42992;49.084;19.300;2023-07-29T11:01:58;5.75;;;3.60;;
57111;SDS011;42992;49.084;19.300;2023-07-29T11:04:25;6.15;;;3.45;;
57111;SDS011;42992;49.084;19.300;2023-07-29T11:14:52;5.60;;;3.40;;
57111;SDS011;42992;49.084;19.300;2023-07-29T11:17:18;5.40;;;3.10;;
57111;SDS011;42992;49.084;19.300;2023-07-29T11:19:44;4.72;;;2.80;;
57111;SDS011;42992;49.084;19.300;2023-07-29T11:22:09;5.30;;;3.25;;
57111;SDS011;42992;49.084;19.300;2023-07-29T11:24:34;4.57;;;3.33;;
57111;SDS011;42992;49.084;19.300;2023-07-29T11:27:00;4.70;;;3.20;;
57111;SDS011;42992;49.084;19.300;2023-07-29T11:29:25;4.93;;;3.40;;
57111;SDS011;42992;49.084;19.300;2023-07-29T11:31:50;4.97;;;3.20;;
57111;SDS011;42992;49.084;19.300;2023-07-29T11:34:16;4.90;;;2.72;;
57111;SDS011;42992;49.084;19.300;2023-07-29T11:36:45;5.28;;;2.60;;
57111;SDS011;42992;49.084;19.300;2023-07-29T11:39:10;5.72;;;2.40;;
57111;SDS011;42992;49.084;19.300;2023-07-29T11:41:36;3.97;;;2.30;;
57111;SDS011;42992;49.084;19.300;2023-07-29T11:44:02;4.07;;;2.60;;
57111;SDS011;42992;49.084;19.300;2023-07-29T11:46:27;3.38;;;2.15;;
57111;SDS011;42992;49.084;19.300;2023-07-29T11:48:53;5.80;;;2.83;;
57111;SDS011;42992;49.084;19.300;2023-07-29T11:51:19;5.28;;;2.45;;
57111;SDS011;42992;49.084;19.300;2023-07-29T11:53:44;3.90;;;2.30;;
57111;SDS011;42992;49.084;19.300;2023-07-29T11:56:10;6.18;;;2.75;;
57111;SDS011;42992;49.084;19.300;2023-07-29T11:58:36;4.43;;;2.35;;
57111;SDS011;42992;49.084;19.300;2023-07-29T12:01:01;4.30;;;2.50;;
57111;SDS011;42992;49.084;19.300;2023-07-29T12:03:28;4.20;;;2.10;;
57111;SDS011;42992;49.084;19.300;2023-07-29T12:05:55;3.92;;;2.08;;
57111;SDS011;42992;49.084;19.300;2023-07-29T12:08:20;3.88;;;2.13;;
57111;SDS011;42992;49.084;19.300;2023-07-29T12:10:46;6.00;;;2.00;;
57111;SDS011;42992;49.084;19.300;2023-07-29T12:13:12;4.03;;;2.10;;
57111;SDS011;42992;49.084;19.300;2023-07-29T12:15:37;6.13;;;2.10;;
57111;SDS011;42992;49.084;19.300;2023-07-29T12:18:03;5.85;;;2.13;;
57111;SDS011;42992;49.084;19.300;2023-07-29T12:20:29;3.00;;;1.80;;
57111;SDS011;42992;49.084;19.300;2023-07-29T12:23:00;4.30;;;2.20;;
57111;SDS011;42992;49.084;19.300;2023-07-29T12:25:28;5.80;;;2.20;;
57111;SDS011;42992;49.084;19.300;2023-07-29T12:27:53;3.88;;;2.30;;
57111;SDS011;42992;49.084;19.300;2023-07-29T12:30:21;5.57;;;2.30;;
57111;SDS011;42992;49.084;19.300;2023-07-29T12:32:47;3.63;;;2.13;;
57111;SDS011;42992;49.084;19.300;2023-07-29T12:35:13;3.72;;;2.08;;
57111;SDS011;42992;49.084;19.300;2023-07-29T12:37:38;3.45;;;2.03;;
57111;SDS011;42992;49.084;19.300;2023-07-29T12:40:07;4.45;;;2.60;;
57111;SDS011;42992;49.084;19.300;2023-07-29T12:42:32;5.03;;;2.38;;
57111;SDS011;42992;49.084;19.300;2023-07-29T12:44:58;6.10;;;2.72;;
57111;SDS011;42992;49.084;19.300;2023-07-29T12:47:23;4.37;;;2.80;;
57111;SDS011;42992;49.084;19.300;2023-07-29T12:49:48;3.88;;;2.60;;
57111;SDS011;42992;49.084;19.300;2023-07-29T12:52:13;5.63;;;2.60;;
57111;SDS011;42992;49.084;19.300;2023-07-29T12:54:38;4.20;;;2.70;;
57111;SDS011;42992;49.084;19.300;2023-07-29T12:57:05;4.10;;;2.63;;
57111;SDS011;42992;49.084;19.300;2023-07-29T12:59:30;3.88;;;2.60;;
57111;SDS011;42992;49.084;19.300;2023-07-29T13:01:56;3.73;;;2.50;;
57111;SDS011;42992;49.084;19.300;2023-07-29T13:04:21;4.33;;;2.17;;
57111;SDS011;42992;49.084;19.300;2023-07-29T13:06:46;5.47;;;1.97;;
57111;SDS011;42992;49.084;19.300;2023-07-29T13:09:11;2.73;;;1.60;;
57111;SDS011;42992;49.084;19.300;2023-07-29T13:11:36;3.20;;;1.63;;
57111;SDS011;42992;49.084;19.300;2023-07-29T13:14:02;3.65;;;1.88;;
57111;SDS011;42992;49.084;19.300;2023-07-29T13:16:27;3.20;;;1.80;;
57111;SDS011;42992;49.084;19.300;2023-07-29T13:18:53;3.95;;;1.90;;
57111;SDS011;42992;49.084;19.300;2023-07-29T13:21:18;6.60;;;2.03;;
57111;SDS011;42992;49.084;19.300;2023-07-29T13:23:43;3.42;;;1.88;;
57111;SDS011;42992;49.084;19.300;2023-07-29T13:26:08;3.80;;;1.63;;
57111;SDS011;42992;49.084;19.300;2023-07-29T13:28:34;3.53;;;1.97;;
57111;SDS011;42992;49.084;19.300;2023-07-29T13:30:59;3.10;;;1.80;;
57111;SDS011;42992;49.084;19.300;2023-07-29T13:33:24;3.10;;;1.60;;
57111;SDS011;42992;49.084;19.300;2023-07-29T13:35:49;3.45;;;1.73;;
57111;SDS011;42992;49.084;19.300;2023-07-29T13:38:15;3.53;;;2.08;;
57111;SDS011;42992;49.084;19.300;2023-07-29T13:40:41;3.20;;;1.83;;
57111;SDS011;42992;49.084;19.300;2023-07-29T13:43:06;2.92;;;1.70;;
57111;SDS011;42992;49.084;19.300;2023-07-29T13:45:31;3.47;;;2.13;;
57111;SDS011;42992;49.084;19.300;2023-07-29T13:47:56;4.63;;;2.05;;
57111;SDS011;42992;49.084;19.300;2023-07-29T13:50:22;3.38;;;1.83;;
57111;SDS011;42992;49.084;19.300;2023-07-29T13:52:47;3.67;;;1.95;;
57111;SDS011;42992;49.084;19.300;2023-07-29T13:55:13;4.55;;;1.90;;
57111;SDS011;42992;49.084;19.300;2023-07-29T13:57:38;3.40;;;2.03;;
57111;SDS011;42992;49.084;19.300;2023-07-29T14:00:05;2.78;;;1.73;;
57111;SDS011;42992;49.084;19.300;2023-07-29T14:02:30;3.63;;;1.70;;
57111;SDS011;42992;49.084;19.300;2023-07-29T14:04:56;3.47;;;1.92;;
57111;SDS011;42992;49.084;19.300;2023-07-29T14:07:21;3.75;;;1.80;;
57111;SDS011;42992;49.084;19.300;2023-07-29T14:09:46;3.60;;;1.77;;
57111;SDS011;42992;49.084;19.300;2023-07-29T14:12:12;5.45;;;3.45;;
57111;SDS011;42992;49.084;19.300;2023-07-29T14:14:39;7.53;;;4.32;;
57111;SDS011;42992;49.084;19.300;2023-07-29T14:17:05;4.32;;;2.35;;
57111;SDS011;42992;49.084;19.300;2023-07-29T14:19:31;4.60;;;2.83;;
57111;SDS011;42992;49.084;19.300;2023-07-29T14:21:56;3.83;;;2.10;;
57111;SDS011;42992;49.084;19.300;2023-07-29T14:24:21;6.30;;;2.10;;
57111;SDS011;42992;49.084;19.300;2023-07-29T14:26:47;3.67;;;1.77;;
57111;SDS011;42992;49.084;19.300;2023-07-29T14:29:12;2.75;;;1.50;;
57111;SDS011;42992;49.084;19.300;2023-07-29T14:31:38;7.30;;;1.90;;
57111;SDS011;42992;49.084;19.300;2023-07-29T14:34:03;3.15;;;1.55;;
57111;SDS011;42992;49.084;19.300;2023-07-29T14:36:28;4.35;;;1.60;;
57111;SDS011;42992;49.084;19.300;2023-07-29T14:38:53;5.03;;;1.70;;